Time;durP1;ratioP1;P1;durP2;ratioP2;P2;SDS_P1;SDS_P2;PMS_P1;PMS_P2;Temp;Humidity;BMP_temperature;BMP_pressure;BME280_temperature;BME280_humidity;BME280_pressure;Samples;Min_cycle;Max_cycle;Signal;HPM_P1;HPM_P2
2023/09/17 00:01:07;;;;;;;3.40;2.60;;;;;;;11.24;97.75;102108.53;5055236;28;20030;-66
2023/09/17 00:03:32;;;;;;;3.17;2.40;;;;;;;11.35;97.48;102141.31;5055001;28;20025;-67
2023/09/17 00:05:58;;;;;;;4.50;3.00;;;;;;;11.36;97.69;102137.66;5055048;28;20025;-67
2023/09/17 00:08:24;;;;;;;5.90;3.13;;;;;;;11.37;97.20;102138.50;5053794;28;20029;-67
2023/09/17 00:10:50;;;;;;;5.07;2.87;;;;;;;11.31;97.21;102131.88;5055237;28;20033;-67
2023/09/17 00:13:16;;;;;;;4.77;3.17;;;;;;;11.27;96.94;102125.09;5054841;28;20479;-68
2023/09/17 00:15:42;;;;;;;7.27;3.53;;;;;;;11.34;97.04;102138.78;5053788;28;20504;-67
2023/09/17 00:18:07;;;;;;;6.77;2.87;;;;;;;11.28;97.00;102124.16;5055303;28;20113;-66
2023/09/17 00:20:33;;;;;;;3.40;2.40;;;;;;;11.37;97.17;102135.81;5054678;28;20088;-67
2023/09/17 00:22:59;;;;;;;2.97;2.27;;;;;;;11.26;96.90;102120.75;5053441;28;20035;-68
2023/09/17 00:25:25;;;;;;;3.33;2.47;;;;;;;11.21;97.13;102114.13;5054739;28;20064;-67
2023/09/17 00:27:51;;;;;;;4.00;2.57;;;;;;;11.34;97.46;102128.09;5054479;28;20075;-68
2023/09/17 00:30:17;;;;;;;3.33;2.23;;;;;;;11.20;97.54;102107.94;5054631;28;20485;-68
2023/09/17 00:32:43;;;;;;;5.03;2.60;;;;;;;11.25;97.51;102120.88;5054452;28;20496;-67
2023/09/17 00:35:09;;;;;;;4.27;3.00;;;;;;;11.16;97.69;102115.38;5054765;28;20044;-67
2023/09/17 00:37:34;;;;;;;4.23;2.87;;;;;;;11.16;98.19;102112.72;5055076;28;20124;-67
2023/09/17 00:40:00;;;;;;;3.77;2.23;;;;;;;11.22;98.26;102118.47;5053062;28;20083;-67
2023/09/17 00:42:25;;;;;;;3.80;2.43;;;;;;;11.13;98.19;102109.47;5036619;28;20028;-68
2023/09/17 00:44:50;;;;;;;4.20;2.50;;;;;;;11.22;98.65;102119.31;5053301;28;20124;-66
2023/09/17 00:47:16;;;;;;;3.60;2.60;;;;;;;11.12;98.70;102102.44;5054589;28;20082;-67
2023/09/17 00:49:42;;;;;;;4.17;2.20;;;;;;;11.09;98.88;102102.72;5052962;28;20025;-68
2023/09/17 00:52:16;;;;;;;3.47;2.40;;;;;;;11.14;98.87;102104.00;5054012;28;20084;-67
2023/09/17 00:54:43;;;;;;;2.80;2.33;;;;;;;10.92;98.90;102068.66;5054253;28;20052;-67
2023/09/17 00:57:11;;;;;;;3.83;2.43;;;;;;;11.14;99.15;102111.16;5053183;28;20559;-67
2023/09/17 00:59:37;;;;;;;3.75;2.15;;;;;;;11.11;99.08;102106.94;5055105;28;20514;-68
2023/09/17 01:02:04;;;;;;;3.73;2.30;;;;;;;11.07;99.24;102100.19;5054587;28;20075;-67
2023/09/17 01:04:31;;;;;;;4.47;2.50;;;;;;;11.05;99.34;102090.63;5056999;28;20033;-67
2023/09/17 01:06:58;;;;;;;6.57;2.23;;;;;;;11.15;99.48;102103.03;5057108;28;20029;-67
2023/09/17 01:09:25;;;;;;;2.83;2.30;;;;;;;11.06;99.67;102079.00;5057443;28;20028;-67
2023/09/17 01:11:51;;;;;;;2.57;2.37;;;;;;;11.03;100.00;102079.28;5055191;28;20056;-66
2023/09/17 01:14:19;;;;;;;4.03;1.97;;;;;;;11.11;99.50;102092.78;5058813;28;20033;-66
2023/09/17 01:16:46;;;;;;;3.40;2.30;;;;;;;11.15;99.85;102091.53;5059849;28;20036;-68
2023/09/17 01:19:18;;;;;;;3.47;2.50;;;;;;;11.15;99.85;102084.38;5056364;28;20067;-68
2023/09/17 01:22:02;;;;;;;3.53;2.43;;;;;;;11.16;99.75;102083.38;5056487;28;20032;-67
2023/09/17 01:24:50;;;;;;;4.77;2.30;;;;;;;11.13;100.00;102082.81;5055257;28;20116;-67
2023/09/17 01:27:18;;;;;;;4.63;2.35;;;;;;;11.09;100.00;102070.72;5055562;28;20029;-68
2023/09/17 01:29:46;;;;;;;3.47;2.60;;;;;;;11.02;100.00;102074.91;5053386;28;20072;-68
2023/09/17 01:32:13;;;;;;;3.20;2.33;;;;;;;10.82;100.00;102048.16;5052319;28;20049;-68
2023/09/17 01:34:43;;;;;;;3.40;2.53;;;;;;;10.62;100.00;102009.06;5052717;28;20122;-67
2023/09/17 01:37:17;;;;;;;6.13;2.40;;;;;;;10.98;100.00;102062.81;5053212;28;20024;-68
2023/09/17 01:39:53;;;;;;;4.23;2.40;;;;;;;10.89;100.00;102044.97;5053168;28;20021;-68
2023/09/17 01:42:20;;;;;;;5.47;2.63;;;;;;;10.95;100.00;102049.75;5035593;28;20033;-68
2023/09/17 01:44:47;;;;;;;3.60;2.60;;;;;;;10.91;100.00;102041.19;5035456;28;20519;-67
2023/09/17 01:47:16;;;;;;;2.60;2.33;;;;;;;10.90;100.00;102036.81;5053584;28;20535;-67
2023/09/17 01:49:45;;;;;;;3.03;1.83;;;;;;;10.81;100.00;102025.16;5057068;28;20063;-68
2023/09/17 01:52:11;;;;;;;4.47;2.50;;;;;;;10.85;100.00;102036.38;5055322;28;20036;-69
2023/09/17 01:54:37;;;;;;;3.27;2.20;;;;;;;10.90;100.00;102039.50;5053129;28;20036;-67
2023/09/17 01:57:03;;;;;;;3.90;2.50;;;;;;;10.92;100.00;102042.03;5053112;28;20025;-68
2023/09/17 01:59:29;;;;;;;2.93;2.60;;;;;;;10.90;100.00;102036.81;5052904;28;20051;-68
2023/09/17 02:01:54;;;;;;;2.90;2.20;;;;;;;10.85;100.00;102031.91;5035545;28;20028;-67
2023/09/17 02:04:19;;;;;;;2.77;2.20;;;;;;;10.88;100.00;102033.44;5053133;28;20032;-67
2023/09/17 02:06:45;;;;;;;2.80;2.33;;;;;;;10.86;100.00;102022.94;5053030;28;20372;-68
2023/09/17 02:09:12;;;;;;;4.73;2.33;;;;;;;10.81;100.00;102022.50;5051887;28;20052;-68
2023/09/17 02:11:38;;;;;;;3.90;2.77;;;;;;;10.77;100.00;102018.41;5052846;28;20033;-67
2023/09/17 02:14:04;;;;;;;3.43;2.40;;;;;;;10.75;100.00;102009.69;5053041;28;20029;-67
2023/09/17 02:16:31;;;;;;;3.70;2.60;;;;;;;10.78;100.00;102013.91;5052058;28;20055;-67
2023/09/17 02:18:57;;;;;;;4.73;3.20;;;;;;;10.74;100.00;102010.69;5052881;28;20032;-68
2023/09/17 02:21:23;;;;;;;4.87;2.97;;;;;;;10.77;100.00;102018.41;5053878;28;20032;-67
2023/09/17 02:23:48;;;;;;;3.73;2.43;;;;;;;10.71;100.00;102002.97;5052455;28;20425;-68
2023/09/17 02:26:15;;;;;;;5.87;3.10;;;;;;;10.55;100.00;101986.59;5056442;28;20070;-67
2023/09/17 02:28:41;;;;;;;6.50;2.77;;;;;;;10.67;100.00;101990.84;5055593;28;20028;-67
2023/09/17 02:31:10;;;;;;;6.93;3.30;;;;;;;10.74;100.00;101988.53;5056319;28;20060;-67
2023/09/17 02:33:36;;;;;;;4.13;3.07;;;;;;;10.77;100.00;102005.09;5056259;28;20041;-66
2023/09/17 02:36:03;;;;;;;5.10;3.10;;;;;;;10.69;100.00;101982.72;5056396;28;20031;-67
2023/09/17 02:38:28;;;;;;;6.37;2.93;;;;;;;10.80;100.00;101998.63;5057115;28;20031;-67
2023/09/17 02:40:54;;;;;;;3.63;2.70;;;;;;;9.82;100.00;101843.81;5058232;28;20029;-68
2023/09/17 02:43:19;;;;;;;5.50;3.27;;;;;;;10.65;100.00;101971.50;5058004;28;20063;-67
2023/09/17 02:45:45;;;;;;;5.13;2.90;;;;;;;10.63;100.00;101973.44;5055855;28;20365;-69
2023/09/17 02:48:14;;;;;;;3.40;2.60;;;;;;;10.63;100.00;101973.44;5055712;28;20037;-66
2023/09/17 02:50:39;;;;;;;;;;;;;;;10.73;100.00;101990.34;5051286;28;20056;-68
2023/09/17 02:53:05;;;;;;;4.27;2.37;;;;;;;10.70;100.00;101995.09;5051938;28;19936;-68
2023/09/17 02:55:34;;;;;;;6.43;3.03;;;;;;;10.60;100.00;101968.41;5052144;28;20025;-67
2023/09/17 02:58:02;;;;;;;4.25;2.65;;;;;;;10.73;100.00;101978.84;5052079;28;20079;-68
2023/09/17 03:00:33;;;;;;;4.63;2.27;;;;;;;10.64;100.00;101958.31;5052067;28;20056;-70
2023/09/17 03:03:00;;;;;;;6.07;3.00;;;;;;;10.71;100.00;101970.97;5053231;28;20464;-68
2023/09/17 03:05:25;;;;;;;4.80;2.90;;;;;;;10.68;100.00;101965.91;5058508;28;20053;-66
2023/09/17 03:07:51;;;;;;;4.60;3.30;;;;;;;10.67;100.00;101966.88;5055399;28;20487;-67
2023/09/17 03:10:20;;;;;;;5.50;3.00;;;;;;;10.58;100.00;101949.03;5052124;28;20033;-68
2023/09/17 03:12:46;;;;;;;;;;;;;;;10.66;100.00;101953.69;5051918;28;20135;-68
2023/09/17 03:15:12;;;;;;;5.87;3.07;;;;;;;10.57;100.00;101947.34;5052083;28;20383;-68
2023/09/17 03:17:39;;;;;;;2.53;2.27;;;;;;;10.55;100.00;101950.16;5051917;28;20037;-67
2023/09/17 03:20:13;;;;;;;3.10;2.30;;;;;;;10.21;100.00;101888.31;5050305;28;20081;-68
2023/09/17 03:22:42;;;;;;;2.20;2.00;;;;;;;10.51;100.00;101937.25;5051906;28;20029;-69
2023/09/17 03:25:08;;;;;;;5.07;2.87;;;;;;;10.45;100.00;101930.63;5051826;28;20078;-68
2023/09/17 03:27:34;;;;;;;2.90;2.40;;;;;;;10.49;100.00;101942.69;5051796;28;20033;-68
2023/09/17 03:30:03;;;;;;;10.83;4.37;;;;;;;10.42;100.00;101933.56;5051662;28;20032;-68
2023/09/17 03:32:29;;;;;;;5.63;2.50;;;;;;;10.38;100.00;101923.28;5051464;28;20098;-69
2023/09/17 03:34:55;;;;;;;2.77;2.33;;;;;;;10.31;100.00;101927.47;5051345;28;20044;-67
2023/09/17 03:37:21;;;;;;;5.00;2.60;;;;;;;10.32;100.00;101935.31;5051837;28;20028;-67
2023/09/17 03:40:04;;;;;;;2.30;2.10;;;;;;;10.34;100.00;101935.19;5051462;28;20128;-68
2023/09/17 03:42:29;;;;;;;3.23;1.97;;;;;;;10.33;100.00;101930.84;5051774;28;20029;-68
2023/09/17 03:44:55;;;;;;;4.67;2.30;;;;;;;10.36;100.00;101927.91;5051541;28;20036;-68
2023/09/17 03:47:20;;;;;;;3.50;2.67;;;;;;;10.23;100.00;101907.69;5051286;28;20040;-67
2023/09/17 03:49:46;;;;;;;4.27;2.30;;;;;;;10.40;100.00;101930.16;5051567;28;20029;-68
2023/09/17 03:52:11;;;;;;;2.80;2.40;;;;;;;10.41;100.00;101925.72;5051559;28;20181;-68
2023/09/17 03:54:37;;;;;;;3.47;2.57;;;;;;;10.42;100.00;101916.75;5051412;28;20162;-67
2023/09/17 03:57:04;;;;;;;5.23;2.53;;;;;;;10.37;100.00;101897.63;5054114;28;20025;-67
2023/09/17 03:59:30;;;;;;;6.47;2.23;;;;;;;10.44;100.00;101898.81;5055308;28;20138;-69
2023/09/17 04:01:55;;;;;;;2.83;2.47;;;;;;;10.50;100.00;101900.94;5055110;28;20544;-69
2023/09/17 04:04:21;;;;;;;3.00;2.47;;;;;;;10.58;100.00;101903.75;5055184;28;20116;-67
2023/09/17 04:06:46;;;;;;;4.83;3.17;;;;;;;10.60;100.00;101899.13;5055098;28;20084;-68
2023/09/17 04:09:13;;;;;;;2.77;2.57;;;;;;;10.49;100.00;101872.59;5055365;28;20098;-69
2023/09/17 04:11:39;;;;;;;2.90;2.30;;;;;;;10.74;100.00;101901.44;5055674;28;20066;-69
2023/09/17 04:14:06;;;;;;;3.40;2.63;;;;;;;10.67;100.00;101872.78;5054904;28;20033;-67
2023/09/17 04:16:32;;;;;;;2.80;2.27;;;;;;;10.76;100.00;101883.50;5054718;28;20040;-69
2023/09/17 04:18:57;;;;;;;3.43;2.70;;;;;;;10.82;100.00;101885.59;5054940;28;20525;-70
2023/09/17 04:21:23;;;;;;;4.17;2.60;;;;;;;10.80;100.00;101863.56;5055137;28;20120;-68
2023/09/17 04:23:48;;;;;;;4.90;2.40;;;;;;;10.94;100.00;101872.16;5054054;28;20436;-68
2023/09/17 04:26:15;;;;;;;2.87;2.57;;;;;;;10.95;100.00;101872.00;5054740;28;20025;-67
2023/09/17 04:28:41;;;;;;;5.33;2.90;;;;;;;10.89;100.00;101853.06;5054952;28;20115;-67
2023/09/17 04:31:07;;;;;;;3.07;2.57;;;;;;;11.03;100.00;101871.34;5053299;28;20140;-68
2023/09/17 04:33:32;;;;;;;4.37;3.03;;;;;;;11.06;100.00;101858.56;5054867;28;20546;-66
2023/09/17 04:35:58;;;;;;;4.67;2.53;;;;;;;11.13;100.00;101864.19;5054569;28;20033;-66
2023/09/17 04:38:24;;;;;;;3.60;2.83;;;;;;;10.95;100.00;101829.34;5054734;28;20037;-67
2023/09/17 04:40:50;;;;;;;4.87;2.43;;;;;;;11.15;100.00;101851.56;5054520;28;20029;-68
2023/09/17 04:43:16;;;;;;;5.27;2.70;;;;;;;11.12;100.00;101843.84;5054317;28;20349;-70
2023/09/17 04:45:42;;;;;;;3.63;2.60;;;;;;;10.99;99.61;101813.97;5054303;28;20040;-67
2023/09/17 04:48:09;;;;;;;4.70;2.80;;;;;;;11.10;99.46;101833.31;5054057;28;20491;-68
2023/09/17 04:50:35;;;;;;;5.10;2.80;;;;;;;11.20;99.71;101841.31;5054451;28;20118;-69
2023/09/17 04:53:02;;;;;;;3.20;2.40;;;;;;;11.24;99.37;101847.19;5053984;28;20029;-68
2023/09/17 04:55:27;;;;;;;6.17;2.80;;;;;;;11.24;99.04;101840.03;5053848;28;20086;-67
2023/09/17 04:57:53;;;;;;;4.83;3.30;;;;;;;11.17;98.97;101822.91;5052691;28;20021;-69
2023/09/17 05:00:20;;;;;;;4.80;3.00;;;;;;;11.17;98.66;101820.25;5053788;28;20025;-67
2023/09/17 05:02:46;;;;;;;4.93;2.87;;;;;;;11.13;98.57;101816.19;5054288;28;20080;-69
2023/09/17 05:05:12;;;;;;;3.47;3.17;;;;;;;11.20;99.82;101827.97;5053981;28;20504;-67
2023/09/17 05:07:39;;;;;;;4.37;2.87;;;;;;;11.16;99.41;101822.09;5053209;28;20408;-68
2023/09/17 05:10:07;;;;;;;3.20;2.90;;;;;;;10.82;100.00;101765.69;5052423;28;20538;-68
2023/09/17 05:12:33;;;;;;;3.47;3.00;;;;;;;10.97;99.46;101786.56;5053802;28;20035;-68
2023/09/17 05:14:58;;;;;;;3.57;3.27;;;;;;;11.13;99.52;101817.03;5053603;28;20033;-66
2023/09/17 05:17:24;;;;;;;3.30;2.77;;;;;;;11.02;100.00;101795.03;5052432;28;20025;-66
2023/09/17 05:19:49;;;;;;;4.03;3.17;;;;;;;11.11;100.00;101802.16;5053084;28;20452;-68
2023/09/17 05:22:15;;;;;;;7.07;3.30;;;;;;;11.10;100.00;101801.31;5053208;28;20029;-68
2023/09/17 05:24:40;;;;;;;3.40;2.97;;;;;;;11.16;99.91;101805.25;5054080;28;20117;-69
2023/09/17 05:27:06;;;;;;;4.47;3.47;;;;;;;11.12;99.59;101790.50;5052901;28;20017;-71
2023/09/17 05:29:31;;;;;;;3.47;3.10;;;;;;;11.27;99.16;101796.25;5053873;28;20478;-69
2023/09/17 05:31:57;;;;;;;4.63;2.87;;;;;;;11.26;98.60;101781.22;5053418;28;20527;-67
2023/09/17 05:34:24;;;;;;;6.83;3.27;;;;;;;11.39;98.00;101790.63;5052689;28;20036;-69
2023/09/17 05:36:49;;;;;;;5.97;3.27;;;;;;;11.48;97.54;101786.25;5053098;28;20068;-67
2023/09/17 05:39:15;;;;;;;6.33;3.00;;;;;;;11.22;97.21;101724.69;5052896;28;20048;-70
2023/09/17 05:41:40;;;;;;;7.23;3.00;;;;;;;11.55;96.87;101767.84;5052418;28;20074;-68
2023/09/17 05:44:06;;;;;;;7.10;3.57;;;;;;;11.66;96.70;101776.53;5052623;28;20036;-66
2023/09/17 05:46:32;;;;;;;4.47;2.90;;;;;;;11.53;95.50;101737.78;5050075;28;20037;-66
2023/09/17 05:48:57;;;;;;;5.47;3.47;;;;;;;11.82;94.98;101773.25;5031691;28;20029;-71
2023/09/17 05:51:23;;;;;;;4.80;2.83;;;;;;;11.81;94.31;101765.41;5052801;28;20479;-69
2023/09/17 05:53:48;;;;;;;3.97;3.10;;;;;;;11.91;94.08;101752.88;5053123;28;20021;-68
2023/09/17 05:56:14;;;;;;;8.57;3.70;;;;;;;11.92;93.29;101744.72;5052910;28;20059;-69
2023/09/17 05:58:39;;;;;;;4.90;3.23;;;;;;;12.12;93.23;101755.28;5052495;28;20017;-67
2023/09/17 06:01:05;;;;;;;7.10;3.23;;;;;;;11.88;92.46;101697.13;5051556;28;20021;-68
2023/09/17 06:03:30;;;;;;;4.77;3.40;;;;;;;12.30;91.99;101742.84;5051074;28;20051;-70
2023/09/17 06:05:56;;;;;;;3.60;3.00;;;;;;;12.48;90.78;101746.38;5036268;28;20029;-68
2023/09/17 06:08:22;;;;;;;3.87;3.43;;;;;;;12.12;89.79;101669.84;5035254;28;20358;-67
2023/09/17 06:10:48;;;;;;;3.83;2.70;;;;;;;12.47;89.37;101723.34;5033159;28;20384;-67
2023/09/17 06:13:13;;;;;;;4.97;3.70;;;;;;;12.48;88.75;101725.00;5032716;28;20037;-70
2023/09/17 06:15:39;;;;;;;4.40;3.43;;;;;;;12.57;89.59;101739.28;5032458;28;20045;-69
2023/09/17 06:18:05;;;;;;;8.60;3.83;;;;;;;12.45;89.73;101725.31;5032646;28;20033;-71
2023/09/17 06:20:30;;;;;;;6.33;3.93;;;;;;;12.45;90.25;101733.31;5032804;28;20389;-70
2023/09/17 06:22:56;;;;;;;4.37;3.20;;;;;;;12.36;90.71;101742.22;5032692;28;20041;-69
2023/09/17 06:25:23;;;;;;;4.20;3.77;;;;;;;12.20;91.48;101723.38;5038991;28;20116;-65
2023/09/17 06:27:48;;;;;;;6.50;4.33;;;;;;;12.16;92.21;101722.81;5024446;28;20369;-70
2023/09/17 06:30:17;;;;;;;4.63;3.40;;;;;;;12.04;93.05;101710.66;5072327;28;20085;-69
2023/09/17 06:32:44;;;;;;;5.23;3.77;;;;;;;12.08;92.74;101712.88;5070992;28;20042;-70
2023/09/17 06:35:12;;;;;;;5.23;4.10;;;;;;;12.17;93.28;101727.19;5071294;28;20033;-68
2023/09/17 06:37:41;;;;;;;5.32;3.72;;;;;;;12.28;92.56;101712.75;5056195;28;20033;-67
2023/09/17 06:40:08;;;;;;;;;;;;;;;12.56;92.83;101733.09;5032573;28;20075;-66
2023/09/17 06:42:33;;;;;;;4.30;3.37;;;;;;;12.65;91.15;101715.31;5032676;28;19909;-67
2023/09/17 06:44:59;;;;;;;4.90;3.83;;;;;;;12.76;89.85;101696.38;5032325;28;20036;-69
2023/09/17 06:47:24;;;;;;;6.80;3.43;;;;;;;13.00;89.05;101717.09;5031041;28;20034;-72
2023/09/17 06:49:49;;;;;;;6.03;3.63;;;;;;;13.00;88.21;101690.38;5032702;28;20056;-67
2023/09/17 06:52:15;;;;;;;4.43;3.33;;;;;;;13.03;88.25;101692.75;5033485;28;20083;-68
2023/09/17 06:54:40;;;;;;;11.83;3.50;;;;;;;12.99;88.00;101672.63;5038028;28;20112;-67
2023/09/17 06:57:07;;;;;;;14.30;4.70;;;;;;;13.12;87.99;101688.28;5052846;28;20064;-69
2023/09/17 06:59:33;;;;;;;8.93;4.50;;;;;;;13.27;87.50;101679.56;5051879;28;20473;-68
2023/09/17 07:01:58;;;;;;;4.90;3.87;;;;;;;13.44;86.67;101676.97;5052227;28;20087;-67
2023/09/17 07:04:24;;;;;;;6.03;3.60;;;;;;;13.52;86.19;101655.59;5051834;28;20029;-66
2023/09/17 07:06:49;;;;;;;5.07;3.57;;;;;;;13.73;85.54;101672.09;5051961;28;20024;-68
2023/09/17 07:09:14;;;;;;;4.50;3.67;;;;;;;13.78;84.83;101651.03;5051937;28;20123;-68
2023/09/17 07:11:40;;;;;;;5.00;3.13;;;;;;;13.96;84.41;101675.03;5050728;28;20082;-67
2023/09/17 07:14:09;;;;;;;7.83;4.17;;;;;;;14.01;83.93;101671.88;5052064;28;20487;-67
2023/09/17 07:16:38;;;;;;;4.73;3.83;;;;;;;14.06;82.89;101670.38;5054865;28;20022;-68
2023/09/17 07:19:05;;;;;;;5.53;3.67;;;;;;;13.88;83.90;101627.66;5056566;28;20040;-67
2023/09/17 07:21:31;;;;;;;6.70;4.80;;;;;;;13.95;83.46;101625.16;5054963;28;20036;-68
2023/09/17 07:23:57;;;;;;;6.33;3.87;;;;;;;14.06;83.32;101653.47;5052653;28;20033;-68
2023/09/17 07:26:23;;;;;;;5.97;3.53;;;;;;;14.05;83.96;101652.63;5033074;28;20029;-67
2023/09/17 07:28:49;;;;;;;7.27;3.70;;;;;;;14.14;83.68;101653.47;5031516;28;20092;-67
2023/09/17 07:31:17;;;;;;;4.00;3.20;;;;;;;14.14;83.22;101637.41;5033500;28;20053;-67
2023/09/17 07:33:44;;;;;;;9.18;3.75;;;;;;;14.29;83.34;101641.13;5035747;28;20124;-66
2023/09/17 07:36:10;;;;;;;4.53;3.60;;;;;;;14.32;82.55;101626.56;5034879;28;20033;-66
2023/09/17 07:38:36;;;;;;;7.53;3.70;;;;;;;14.30;82.75;101605.28;5034826;28;20037;-66
2023/09/17 07:41:02;;;;;;;5.63;3.57;;;;;;;14.48;82.90;101621.25;5045146;28;20111;-67
2023/09/17 07:43:30;;;;;;;5.60;2.93;;;;;;;14.41;81.82;101607.63;5055132;28;20435;-66
2023/09/17 07:45:56;;;;;;;7.23;3.90;;;;;;;14.41;81.92;101604.13;5055134;28;20125;-64
2023/09/17 07:48:25;;;;;;;8.27;3.10;;;;;;;14.41;81.90;101604.97;5055313;28;20480;-68
2023/09/17 07:50:56;;;;;;;;;;;;;;;14.44;82.62;101604.66;5054123;28;20043;-66
2023/09/17 07:53:22;;;;;;;6.57;4.43;;;;;;;14.39;82.68;101588.22;5037115;28;19915;-66
2023/09/17 07:55:47;;;;;;;5.07;3.90;;;;;;;14.38;82.65;101594.56;5054062;28;20111;-65
2023/09/17 07:58:13;;;;;;;5.37;4.07;;;;;;;14.40;81.79;101587.19;5055037;28;20025;-66
2023/09/17 08:00:59;;;;;;;5.03;3.27;;;;;;;14.49;81.68;101590.78;5055398;28;20025;-69
2023/09/17 08:03:24;;;;;;;6.67;3.93;;;;;;;14.41;81.40;101572.78;5054755;28;20036;-65
2023/09/17 08:05:50;;;;;;;4.20;3.80;;;;;;;14.54;81.41;101583.06;5054093;28;20037;-69
2023/09/17 08:08:16;;;;;;;8.47;3.90;;;;;;;14.42;81.74;101562.91;5056055;28;20090;-69
2023/09/17 08:10:42;;;;;;;6.13;3.87;;;;;;;14.50;81.63;101576.38;5056674;28;20041;-68
2023/09/17 08:13:10;;;;;;;6.13;3.60;;;;;;;14.37;82.48;101568.78;5064316;28;20048;-67
2023/09/17 08:15:36;;;;;;;7.90;5.05;;;;;;;14.21;83.28;101544.69;5057764;28;20025;-63
2023/09/17 08:18:01;;;;;;;6.13;4.10;;;;;;;14.12;83.94;101534.94;5055020;28;20111;-65
2023/09/17 08:20:28;;;;;;;5.90;3.90;;;;;;;14.31;83.68;101548.03;5054748;28;20071;-66
2023/09/17 08:22:53;;;;;;;5.43;3.57;;;;;;;14.40;83.96;101544.31;5055190;28;20043;-69
2023/09/17 08:25:39;;;;;;;7.97;4.00;;;;;;;14.38;82.95;101522.22;5054799;28;20060;-66
2023/09/17 08:28:24;;;;;;;5.20;4.20;;;;;;;14.62;82.73;101534.78;5054203;28;20464;-67
2023/09/17 08:31:11;;;;;;;6.13;4.23;;;;;;;14.64;81.19;101515.84;5054189;28;20132;-68
2023/09/17 08:33:56;;;;;;;5.23;4.40;;;;;;;14.97;81.32;101530.84;5053339;28;20123;-67
2023/09/17 08:36:32;;;;;;;8.90;4.13;;;;;;;15.10;79.88;101535.69;5054350;28;20031;-66
2023/09/17 08:38:58;;;;;;;6.40;4.23;;;;;;;15.15;79.58;101525.25;5054050;28;20124;-65
2023/09/17 08:41:23;;;;;;;6.80;5.17;;;;;;;15.13;79.94;101514.72;5053896;28;20473;-66
2023/09/17 08:43:51;;;;;;;7.10;4.73;;;;;;;15.17;79.48;101524.06;5052830;28;20376;-68
2023/09/17 08:46:24;;;;;;;6.72;4.13;;;;;;;15.23;79.26;101524.38;5053478;28;20021;-66
2023/09/17 08:48:49;;;;;;;7.43;4.00;;;;;;;15.25;79.89;101522.34;5051362;28;20052;-67
2023/09/17 08:51:18;;;;;;;5.47;4.40;;;;;;;15.21;79.93;101524.56;5047383;28;20430;-68
2023/09/17 08:53:53;;;;;;;;;;;;;;;15.17;80.21;101516.03;5052015;28;20025;-69
2023/09/17 08:56:19;;;;;;;6.50;4.50;;;;;;;15.06;81.59;101508.38;5051542;28;20383;-66
2023/09/17 08:58:52;;;;;;;10.53;3.83;;;;;;;15.02;81.27;101509.69;5047747;28;20480;-68
2023/09/17 09:01:24;;;;;;;4.77;4.03;;;;;;;15.02;81.40;101498.97;5047408;28;20021;-70
2023/09/17 09:03:52;;;;;;;7.60;4.30;;;;;;;14.90;82.16;101460.13;5051774;28;20037;-67
2023/09/17 09:06:20;;;;;;;8.73;3.60;;;;;;;15.02;81.58;101452.53;5046595;28;20461;-67
2023/09/17 09:08:47;;;;;;;6.72;3.63;;;;;;;15.47;79.50;101494.75;5053122;28;20032;-69
2023/09/17 09:11:13;;;;;;;6.47;3.93;;;;;;;15.47;77.59;101478.63;5053450;28;20029;-71
2023/09/17 09:13:41;;;;;;;6.57;3.77;;;;;;;15.89;76.92;101498.84;5053667;28;20021;-70
2023/09/17 09:16:07;;;;;;;4.35;3.38;;;;;;;16.04;75.10;101475.56;5052279;28;20029;-68
2023/09/17 09:18:33;;;;;;;5.60;3.90;;;;;;;16.24;74.77;101481.28;5052620;28;20033;-67
2023/09/17 09:20:58;;;;;;;5.50;3.67;;;;;;;16.32;73.51;101470.44;5052061;28;20033;-67
2023/09/17 09:23:25;;;;;;;5.60;3.90;;;;;;;16.36;72.93;101455.63;5053603;28;20032;-68
2023/09/17 09:25:53;;;;;;;13.40;3.63;;;;;;;16.39;72.95;101442.63;5052196;28;20033;-66
2023/09/17 09:28:19;;;;;;;5.60;3.10;;;;;;;16.49;72.80;101436.19;5053121;28;20029;-68
2023/09/17 09:30:46;;;;;;;5.27;3.47;;;;;;;16.63;72.56;101448.78;5052769;28;20128;-66
2023/09/17 09:33:13;;;;;;;5.97;3.83;;;;;;;16.62;72.44;101430.97;5052482;28;20087;-66
2023/09/17 09:35:40;;;;;;;6.77;3.70;;;;;;;16.67;71.54;101437.50;5051817;28;20082;-66
2023/09/17 09:38:05;;;;;;;14.40;3.70;;;;;;;16.67;72.48;101428.59;5052101;28;20021;-67
2023/09/17 09:40:34;;;;;;;3.77;3.33;;;;;;;16.64;72.83;101396.66;5053185;28;20044;-69
2023/09/17 09:43:02;;;;;;;5.77;3.00;;;;;;;16.72;72.02;101401.97;5053877;28;20032;-67
2023/09/17 09:45:30;;;;;;;7.27;4.30;;;;;;;16.71;72.04;101413.75;5053109;28;20054;-71
2023/09/17 09:47:57;;;;;;;7.30;3.75;;;;;;;16.77;72.06;101396.88;5053018;28;20032;-69
2023/09/17 09:50:23;;;;;;;7.83;4.53;;;;;;;16.61;72.79;101370.97;5053384;28;20033;-72
2023/09/17 09:52:49;;;;;;;5.50;3.67;;;;;;;16.73;72.13;101390.19;5053523;28;20029;-70
2023/09/17 09:55:14;;;;;;;8.37;3.93;;;;;;;16.86;73.03;101384.97;5053105;28;20070;-70
2023/09/17 09:57:41;;;;;;;6.23;3.50;;;;;;;16.83;72.98;101358.47;5051747;28;20024;-71
2023/09/17 10:00:12;;;;;;;5.83;3.60;;;;;;;17.03;72.75;101381.03;5053042;28;20114;-70
2023/09/17 10:02:38;;;;;;;8.43;3.23;;;;;;;17.20;71.44;101380.81;5053413;28;20035;-69
2023/09/17 10:05:04;;;;;;;7.13;3.30;;;;;;;17.26;71.14;101371.97;5051583;28;20032;-65
2023/09/17 10:07:30;;;;;;;3.83;3.20;;;;;;;17.13;70.68;101340.38;5051207;28;20075;-65
2023/09/17 10:09:57;;;;;;;4.63;3.43;;;;;;;17.34;71.65;101366.44;5051454;28;20075;-64
2023/09/17 10:12:23;;;;;;;8.83;4.33;;;;;;;17.22;71.06;101343.75;5052528;28;20029;-68
2023/09/17 10:14:49;;;;;;;5.00;3.10;;;;;;;16.94;70.61;101301.44;5052491;28;20079;-67
2023/09/17 10:17:17;;;;;;;4.17;3.33;;;;;;;17.34;70.95;101356.50;5052693;28;20075;-69
2023/09/17 10:19:46;;;;;;;7.22;3.85;;;;;;;17.26;70.94;101350.41;5052476;28;20079;-68
2023/09/17 10:22:14;;;;;;;5.03;3.13;;;;;;;17.22;70.80;101366.13;5052619;28;20415;-67
2023/09/17 10:24:42;;;;;;;6.83;2.80;;;;;;;17.29;70.43;101360.81;5052085;28;20554;-65
2023/09/17 10:27:08;;;;;;;3.40;2.53;;;;;;;17.33;70.59;101365.59;5052062;28;20036;-67
2023/09/17 10:29:38;;;;;;;6.27;2.87;;;;;;;17.26;70.31;101350.41;5052227;28;20028;-68
2023/09/17 10:32:04;;;;;;;6.30;3.50;;;;;;;17.32;70.67;101345.09;5052368;28;20381;-66
2023/09/17 10:34:37;;;;;;;8.83;2.87;;;;;;;17.47;70.12;101345.03;5052397;28;20049;-66
2023/09/17 10:37:04;;;;;;;6.67;3.00;;;;;;;17.58;69.75;101336.44;5051150;28;20031;-67
2023/09/17 10:39:30;;;;;;;4.57;3.17;;;;;;;17.78;68.40;101331.22;5052267;28;20112;-65
2023/09/17 10:41:59;;;;;;;10.10;3.40;;;;;;;17.78;67.26;101344.69;5051930;28;20036;-67
2023/09/17 10:44:26;;;;;;;3.88;2.65;;;;;;;17.66;68.53;101322.00;5051219;28;20034;-68
2023/09/17 10:46:52;;;;;;;6.83;2.80;;;;;;;17.55;68.62;101309.88;5052148;28;20033;-67
2023/09/17 10:49:18;;;;;;;5.23;3.37;;;;;;;17.42;68.89;101284.72;5052107;28;20032;-66
2023/09/17 10:51:46;;;;;;;9.32;3.17;;;;;;;17.73;69.10;101295.13;5052053;28;20032;-65
2023/09/17 10:54:12;;;;;;;6.93;3.22;;;;;;;17.92;68.85;101294.41;5051999;28;20169;-66
2023/09/17 10:56:41;;;;;;;8.43;3.00;;;;;;;17.94;68.63;101300.47;5052023;28;20029;-66
2023/09/17 10:59:11;;;;;;;5.53;2.80;;;;;;;17.97;68.67;101304.63;5053660;28;20054;-68
2023/09/17 11:01:37;;;;;;;5.60;3.20;;;;;;;17.86;68.69;101309.53;5053390;28;20046;-67
2023/09/17 11:04:12;;;;;;;4.90;2.97;;;;;;;17.84;68.33;101308.06;5051966;28;20111;-65
2023/09/17 11:06:39;;;;;;;6.40;2.53;;;;;;;17.75;69.11;101320.84;5051448;28;20028;-66
2023/09/17 11:09:05;;;;;;;7.78;2.50;;;;;;;17.59;69.46;101286.91;5051585;28;20124;-66
2023/09/17 11:11:32;;;;;;;7.80;2.85;;;;;;;17.75;68.89;101303.84;5052252;28;20154;-65
2023/09/17 11:13:58;;;;;;;6.55;2.55;;;;;;;17.85;69.31;101315.94;5052112;28;20037;-66
2023/09/17 11:16:25;;;;;;;6.55;2.85;;;;;;;17.86;69.02;101300.59;5051851;28;20025;-68
2023/09/17 11:19:05;;;;;;;7.80;2.88;;;;;;;17.92;68.92;101294.41;5052056;28;20027;-67
2023/09/17 11:21:34;;;;;;;7.13;2.87;;;;;;;17.99;68.79;101305.28;5051478;28;20025;-68
2023/09/17 11:24:05;;;;;;;7.68;3.25;;;;;;;17.89;69.01;101302.91;5052460;28;20029;-69